Simenta De Carvalho — CSYU3 — position and weather

sailwx.info

Track history (hours):
 
Tides and Currents Weather Stations Pressure Air Temp Water Temp Dewpoint Dewpoint Depression Visibility Wind Speed Wind Dir Waves Ship Positions

Simenta De Carvalho

Last reported at 2017-Dec-10 07:23 UTC. Time now 2017-Dec-11 21:02 UTC.
Position N 37°56' W 008°51'.

Length 12 m.

Type: Pilot. MMSI: 263673856.

Date/timePositionNaut miles runAvg speedWind from/ knotsBaromVisibWave heightAir tempDewpointWater temp
2017-Dec-10 07:23N 37°56' W 008°51'0 0.2
2017-Dec-10 06:55N 37°56' W 008°51'0 0.0
2017-Dec-10 06:28N 37°56' W 008°51'2 5.2
2017-Dec-10 06:00N 37°54' W 008°51'1 2.5
2017-Dec-10 05:30N 37°55' W 008°53'2 3.8
2017-Dec-10 05:00N 37°56' W 008°52'2 3.3
2017-Dec-10 04:30N 37°56' W 008°50'0 0.4
2017-Dec-10 04:00N 37°56' W 008°51'0 0.8
2017-Dec-10 03:28N 37°56' W 008°51'0 0.3
2017-Dec-10 03:00N 37°56' W 008°51'0 0.1
2017-Dec-10 01:27N 37°56' W 008°51'0 0.2
2017-Dec-10 00:59N 37°56' W 008°51'0 0.2
2017-Dec-10 00:30N 37°56' W 008°51'0 0.0
2017-Dec-10 00:00N 37°56' W 008°51'0 0.0
2017-Dec-09 23:30N 37°56' W 008°51'2 4.9
2017-Dec-09 23:00N 37°54' W 008°51'2 0.5
2017-Dec-09 18:24N 37°56' W 008°51'3 8.5
2017-Dec-09 18:00N 37°53' W 008°52'3 1.8
2017-Dec-09 16:06N 37°56' W 008°51'0 4.0
2017-Dec-09 16:00N 37°56' W 008°51'0 0.1
2017-Dec-09 15:30N 37°56' W 008°51'0 0.2
2017-Dec-09 12:56N 37°56' W 008°51'1 2.6
2017-Dec-09 12:30N 37°55' W 008°52'1 1.8
2017-Dec-09 11:58N 37°56' W 008°51'0 0.6
2017-Dec-09 11:28N 37°56' W 008°51'1 1.4
2017-Dec-09 11:00N 37°56' W 008°51'2 3.6
2017-Dec-09 10:30N 37°57' W 008°53'1 0.9
2017-Dec-09 09:16N 37°57' W 008°52'2 9.5
2017-Dec-09 09:00N 37°55' W 008°53'2 4.9
2017-Dec-09 08:30N 37°57' W 008°52'0 0.1
2017-Dec-09 07:39N 37°57' W 008°52'211.3
2017-Dec-09 07:30N 37°55' W 008°51'1 1.4
2017-Dec-09 06:58N 37°56' W 008°51'0 0.1
2017-Dec-09 06:30N 37°56' W 008°51'1 0.2
2017-Dec-08 23:55N 37°57' W 008°52'1 3.0
2017-Dec-08 23:30N 37°57' W 008°53'1 0.5
2017-Dec-08 21:17N 37°57' W 008°52'0 1.6
2017-Dec-08 21:00N 37°56' W 008°52'0 0.1
2017-Dec-08 15:25N 37°57' W 008°52'3 6.6
2017-Dec-08 15:01N 37°54' W 008°53'2 4.4
2017-Dec-08 14:28N 37°56' W 008°51'0 0.0
2017-Dec-08 13:58N 37°56' W 008°51'2 3.9
2017-Dec-08 13:30N 37°57' W 008°53'2 4.2
2017-Dec-08 12:58N 37°56' W 008°51'0 0.6
2017-Dec-08 12:30N 37°56' W 008°51'0 0.2
2017-Dec-08 11:17N 37°56' W 008°51'0 1.0
2017-Dec-08 11:00N 37°56' W 008°51'1 2.7
2017-Dec-08 10:30N 37°55' W 008°52'2 4.6
2017-Dec-08 09:58N 37°57' W 008°53'1 0.6
2017-Dec-08 08:07N 37°57' W 008°52'112.7
2017-Dec-08 08:00N 37°56' W 008°53'1 0.1
2017-Dec-07 19:42N 37°56' W 008°51'211.3
2017-Dec-07 19:30N 37°54' W 008°51'2 0.4
2017-Dec-07 13:12N 37°56' W 008°51'210.8
2017-Dec-07 13:00N 37°54' W 008°51'3 5.1
2017-Dec-07 12:30N 37°56' W 008°52'1 0.4
2017-Dec-07 11:04N 37°57' W 008°52'0 2.0
2017-Dec-07 11:00N 37°57' W 008°52'0 0.5
2017-Dec-07 10:30N 37°57' W 008°52'1 2.8
2017-Dec-07 10:00N 37°56' W 008°51'0 0.1
2017-Dec-07 05:14N 37°56' W 008°51'1 4.2
2017-Dec-07 05:00N 37°56' W 008°52'0 1.0
2017-Dec-07 04:30N 37°56' W 008°53'2 3.3
2017-Dec-07 04:00N 37°56' W 008°51'1 1.3
2017-Dec-07 03:03N 37°57' W 008°52'0 8.3
2017-Dec-07 03:00N 37°56' W 008°52'0 0.2
2017-Dec-07 02:28N 37°56' W 008°51'1 0.4
2017-Dec-07 01:14N 37°57' W 008°52'2 7.5
2017-Dec-07 01:00N 37°55' W 008°53'2 3.2
2017-Dec-07 00:30N 37°57' W 008°53'1 2.4
2017-Dec-06 23:58N 37°56' W 008°52'0 0.0
2017-Dec-06 23:29N 37°56' W 008°52'  
2017-Dec-04 10:24N 37°56' W 008°51'0 0.1
2017-Dec-04 05:57N 37°56' W 008°51'1 2.6
2017-Dec-04 05:30N 37°55' W 008°51'1 2.0
2017-Dec-04 04:55N 37°56' W 008°51'0 0.4
2017-Dec-04 04:30N 37°56' W 008°51'0 0.0
2017-Dec-03 00:32N 37°56' W 008°51'0 0.4
2017-Dec-03 00:30N 37°56' W 008°51'2 3.3
2017-Dec-02 23:58N 37°57' W 008°53'2 4.5
2017-Dec-02 23:30N 37°56' W 008°51'0 0.1
2017-Dec-02 18:16N 37°56' W 008°51'310.4
2017-Dec-02 18:00N 37°54' W 008°52'3 0.4
2017-Dec-02 11:15N 37°56' W 008°51'2 9.3
2017-Dec-02 11:00N 37°54' W 008°51'2 0.7
2017-Dec-02 07:38N 37°56' W 008°51'1 4.8
2017-Dec-02 07:30N 37°56' W 008°51'1 0.0
2017-Dec-01 13:13N 37°56' W 008°51'0 1.1
2017-Dec-01 13:01N 37°56' W 008°51'0 0.3
2017-Dec-01 12:30N 37°56' W 008°51'0 0.0
2017-Dec-01 07:34N 37°56' W 008°51'0 4.2
2017-Dec-01 07:30N 37°56' W 008°51'0 0.2
2017-Dec-01 05:38N 37°56' W 008°51'211.5
2017-Dec-01 05:30N 37°55' W 008°50'1 2.5
2017-Dec-01 05:00N 37°56' W 008°51'0 0.0
2017-Dec-01 04:30N 37°56' W 008°51'0 0.0
2017-Dec-01 03:59N 37°56' W 008°51'0 0.0
2017-Nov-30 15:18N 37°56' W 008°51'1 4.4
2017-Nov-30 15:00N 37°57' W 008°52'  
Track history (hours):
 
Tides and Currents Weather Stations Pressure Air Temp Water Temp Dewpoint Dewpoint Depression Visibility Wind Speed Wind Dir Waves Ship Positions

Simenta De Carvalho

Last reported at 2017-Dec-10 07:23 UTC. Time now 2017-Dec-11 21:02 UTC.
Position N 37°56' W 008°51'.

Length 12 m.

Type: Pilot. MMSI: 263673856.

Date/timePositionNaut miles runAvg speedWind from/ knotsBaromVisibWave heightAir tempDewpointWater temp
2017-Dec-10 07:23N 37°56' W 008°51'0 0.2
2017-Dec-10 06:55N 37°56' W 008°51'0 0.0
2017-Dec-10 06:28N 37°56' W 008°51'2 5.2
2017-Dec-10 06:00N 37°54' W 008°51'1 2.5
2017-Dec-10 05:30N 37°55' W 008°53'2 3.8
2017-Dec-10 05:00N 37°56' W 008°52'2 3.3
2017-Dec-10 04:30N 37°56' W 008°50'0 0.4
2017-Dec-10 04:00N 37°56' W 008°51'0 0.8
2017-Dec-10 03:28N 37°56' W 008°51'0 0.3
2017-Dec-10 03:00N 37°56' W 008°51'0 0.1
2017-Dec-10 01:27N 37°56' W 008°51'0 0.2
2017-Dec-10 00:59N 37°56' W 008°51'0 0.2
2017-Dec-10 00:30N 37°56' W 008°51'0 0.0
2017-Dec-10 00:00N 37°56' W 008°51'0 0.0
2017-Dec-09 23:30N 37°56' W 008°51'2 4.9
2017-Dec-09 23:00N 37°54' W 008°51'2 0.5
2017-Dec-09 18:24N 37°56' W 008°51'3 8.5
2017-Dec-09 18:00N 37°53' W 008°52'3 1.8
2017-Dec-09 16:06N 37°56' W 008°51'0 4.0
2017-Dec-09 16:00N 37°56' W 008°51'0 0.1
2017-Dec-09 15:30N 37°56' W 008°51'0 0.2
2017-Dec-09 12:56N 37°56' W 008°51'1 2.6
2017-Dec-09 12:30N 37°55' W 008°52'1 1.8
2017-Dec-09 11:58N 37°56' W 008°51'0 0.6
2017-Dec-09 11:28N 37°56' W 008°51'1 1.4
2017-Dec-09 11:00N 37°56' W 008°51'2 3.6
2017-Dec-09 10:30N 37°57' W 008°53'1 0.9
2017-Dec-09 09:16N 37°57' W 008°52'2 9.5
2017-Dec-09 09:00N 37°55' W 008°53'2 4.9
2017-Dec-09 08:30N 37°57' W 008°52'0 0.1
2017-Dec-09 07:39N 37°57' W 008°52'211.3
2017-Dec-09 07:30N 37°55' W 008°51'1 1.4
2017-Dec-09 06:58N 37°56' W 008°51'0 0.1
2017-Dec-09 06:30N 37°56' W 008°51'1 0.2
2017-Dec-08 23:55N 37°57' W 008°52'1 3.0
2017-Dec-08 23:30N 37°57' W 008°53'1 0.5
2017-Dec-08 21:17N 37°57' W 008°52'0 1.6
2017-Dec-08 21:00N 37°56' W 008°52'0 0.1
2017-Dec-08 15:25N 37°57' W 008°52'3 6.6
2017-Dec-08 15:01N 37°54' W 008°53'2 4.4
2017-Dec-08 14:28N 37°56' W 008°51'0 0.0
2017-Dec-08 13:58N 37°56' W 008°51'2 3.9
2017-Dec-08 13:30N 37°57' W 008°53'2 4.2
2017-Dec-08 12:58N 37°56' W 008°51'0 0.6
2017-Dec-08 12:30N 37°56' W 008°51'0 0.2
2017-Dec-08 11:17N 37°56' W 008°51'0 1.0
2017-Dec-08 11:00N 37°56' W 008°51'1 2.7
2017-Dec-08 10:30N 37°55' W 008°52'2 4.6
2017-Dec-08 09:58N 37°57' W 008°53'1 0.6
2017-Dec-08 08:07N 37°57' W 008°52'112.7
2017-Dec-08 08:00N 37°56' W 008°53'1 0.1
2017-Dec-07 19:42N 37°56' W 008°51'211.3
2017-Dec-07 19:30N 37°54' W 008°51'2 0.4
2017-Dec-07 13:12N 37°56' W 008°51'210.8
2017-Dec-07 13:00N 37°54' W 008°51'3 5.1
2017-Dec-07 12:30N 37°56' W 008°52'1 0.4
2017-Dec-07 11:04N 37°57' W 008°52'0 2.0
2017-Dec-07 11:00N 37°57' W 008°52'0 0.5
2017-Dec-07 10:30N 37°57' W 008°52'1 2.8
2017-Dec-07 10:00N 37°56' W 008°51'0 0.1
2017-Dec-07 05:14N 37°56' W 008°51'1 4.2
2017-Dec-07 05:00N 37°56' W 008°52'0 1.0
2017-Dec-07 04:30N 37°56' W 008°53'2 3.3
2017-Dec-07 04:00N 37°56' W 008°51'1 1.3
2017-Dec-07 03:03N 37°57' W 008°52'0 8.3
2017-Dec-07 03:00N 37°56' W 008°52'0 0.2
2017-Dec-07 02:28N 37°56' W 008°51'1 0.4
2017-Dec-07 01:14N 37°57' W 008°52'2 7.5
2017-Dec-07 01:00N 37°55' W 008°53'2 3.2
2017-Dec-07 00:30N 37°57' W 008°53'1 2.4
2017-Dec-06 23:58N 37°56' W 008°52'0 0.0
2017-Dec-06 23:29N 37°56' W 008°52'  
2017-Dec-04 10:24N 37°56' W 008°51'0 0.1
2017-Dec-04 05:57N 37°56' W 008°51'1 2.6
2017-Dec-04 05:30N 37°55' W 008°51'1 2.0
2017-Dec-04 04:55N 37°56' W 008°51'0 0.4
2017-Dec-04 04:30N 37°56' W 008°51'0 0.0
2017-Dec-03 00:32N 37°56' W 008°51'0 0.4
2017-Dec-03 00:30N 37°56' W 008°51'2 3.3
2017-Dec-02 23:58N 37°57' W 008°53'2 4.5
2017-Dec-02 23:30N 37°56' W 008°51'0 0.1
2017-Dec-02 18:16N 37°56' W 008°51'310.4
2017-Dec-02 18:00N 37°54' W 008°52'3 0.4
2017-Dec-02 11:15N 37°56' W 008°51'2 9.3
2017-Dec-02 11:00N 37°54' W 008°51'2 0.7
2017-Dec-02 07:38N 37°56' W 008°51'1 4.8
2017-Dec-02 07:30N 37°56' W 008°51'1 0.0
2017-Dec-01 13:13N 37°56' W 008°51'0 1.1
2017-Dec-01 13:01N 37°56' W 008°51'0 0.3
2017-Dec-01 12:30N 37°56' W 008°51'0 0.0
2017-Dec-01 07:34N 37°56' W 008°51'0 4.2
2017-Dec-01 07:30N 37°56' W 008°51'0 0.2
2017-Dec-01 05:38N 37°56' W 008°51'211.5
2017-Dec-01 05:30N 37°55' W 008°50'1 2.5
2017-Dec-01 05:00N 37°56' W 008°51'0 0.0
2017-Dec-01 04:30N 37°56' W 008°51'0 0.0
2017-Dec-01 03:59N 37°56' W 008°51'0 0.0
2017-Nov-30 15:18N 37°56' W 008°51'1 4.4
2017-Nov-30 15:00N 37°57' W 008°52'  

Dump ship's entire track history